Time;durP1;ratioP1;P1;durP2;ratioP2;P2;SDS_P1;SDS_P2;PMS_P1;PMS_P2;Temp;Humidity;BMP_temperature;BMP_pressure;BME280_temperature;BME280_humidity;BME280_pressure;Samples;Min_cycle;Max_cycle;Signal;HPM_P1;HPM_P2
2022/02/12 00:01:45;;;;;;;;;;;0.20;99.90;;;;;;8410910;28;19960;-75
2022/02/12 00:05:46;;;;;;;;;;;0.20;99.90;;;;;;8400951;28;19932;-75
2022/02/12 00:09:48;;;;;;;;;;;0.10;99.90;;;;;;8412435;28;19972;-75
2022/02/12 00:13:49;;;;;;;;;;;0.10;99.90;;;;;;8416407;28;19933;-75
2022/02/12 00:17:51;;;;;;;;;;;0.00;99.90;;;;;;8419706;28;20003;-75
2022/02/12 00:21:53;;;;;;;;;;;0.00;99.90;;;;;;8398113;28;19963;-76
2022/02/12 00:25:54;;;;;;;;;;;0.00;99.90;;;;;;8399744;28;19924;-76
2022/02/12 00:29:56;;;;;;;;;;;-0.10;99.90;;;;;;8385827;28;19968;-75
2022/02/12 00:33:58;;;;;;;;;;;-0.10;99.90;;;;;;8393617;28;20009;-75
2022/02/12 00:37:59;;;;;;;;;;;-0.10;99.90;;;;;;8410314;28;20058;-76
2022/02/12 00:42:01;;;;;;;;;;;-0.20;99.90;;;;;;8416411;28;19931;-75
2022/02/12 00:46:03;;;;;;;;;;;-0.20;99.90;;;;;;8415990;28;19960;-75
2022/02/12 00:50:05;;;;;;;;;;;-0.30;99.90;;;;;;8414238;28;20004;-75
2022/02/12 00:54:07;;;;;;;;;;;-0.30;99.90;;;;;;8415272;28;19975;-75
2022/02/12 00:58:08;;;;;;;;;;;-0.30;99.90;;;;;;8399129;28;20342;-75
2022/02/12 01:02:10;;;;;;;;;;;-0.40;99.90;;;;;;8413802;28;20006;-75
2022/02/12 01:06:12;;;;;;;;;;;-0.40;99.90;;;;;;8415430;28;20584;-75
2022/02/12 01:10:14;;;;;;;;;;;-0.30;99.90;;;;;;8411120;28;19976;-75
2022/02/12 01:14:15;;;;;;;;;;;-0.40;99.90;;;;;;8411773;28;19959;-76
2022/02/12 01:18:17;;;;;;;;;;;-0.40;99.90;;;;;;8389945;28;20066;-75
2022/02/12 01:22:19;;;;;;;;;;;-0.40;99.90;;;;;;8405861;28;20022;-75
2022/02/12 01:26:21;;;;;;;;;;;-0.40;99.90;;;;;;8411730;28;19924;-76
2022/02/12 01:30:22;;;;;;;;;;;-0.40;99.90;;;;;;8408073;28;20299;-76
2022/02/12 01:34:24;;;;;;;;;;;-0.50;99.90;;;;;;8397646;28;19955;-76
2022/02/12 01:38:29;;;;;;;;;;;-0.50;99.90;;;;;;8389879;28;19928;-76
2022/02/12 01:42:30;;;;;;;;;;;-0.50;99.90;;;;;;8404536;28;20358;-75
2022/02/12 01:46:33;;;;;;;;;;;-0.50;99.90;;;;;;8410592;28;19963;-75
2022/02/12 01:50:36;;;;;;;;;;;-0.50;99.90;;;;;;8409518;28;20462;-75
2022/02/12 01:54:38;;;;;;;;;;;-0.50;99.90;;;;;;8388551;28;19935;-75
2022/02/12 01:58:39;;;;;;;;;;;-0.60;99.90;;;;;;8396698;28;19924;-75
2022/02/12 02:02:41;;;;;;;;;;;-0.50;99.90;;;;;;8385776;28;19959;-75
2022/02/12 02:06:44;;;;;;;;;;;-0.50;99.90;;;;;;8392985;28;19967;-75
2022/02/12 02:10:45;;;;;;;;;;;-0.50;99.90;;;;;;8404288;28;19928;-76
2022/02/12 02:14:47;;;;;;;;;;;-0.60;99.90;;;;;;8406966;28;20010;-75
2022/02/12 02:18:48;;;;;;;;;;;-0.60;99.90;;;;;;8415372;28;20316;-75
2022/02/12 02:22:50;;;;;;;;;;;-0.60;99.90;;;;;;8404373;28;20392;-75
2022/02/12 02:27:02;;;;;;;;;;;-0.60;99.90;;;;;;8399970;28;20299;-76
2022/02/12 02:31:04;;;;;;;;;;;-0.60;99.90;;;;;;8381094;28;20055;-75
2022/02/12 02:35:05;;;;;;;;;;;-0.60;99.90;;;;;;8385265;28;19935;-75
2022/02/12 02:39:07;;;;;;;;;;;-0.60;99.90;;;;;;8370760;28;19991;-75
2022/02/12 02:43:09;;;;;;;;;;;-0.60;99.90;;;;;;8385241;28;19956;-75
2022/02/12 02:56:00;;;;;;;;;;;-0.60;99.90;;;;;;8385426;28;19963;-75
2022/02/12 03:00:01;;;;;;;;;;;-0.60;99.90;;;;;;8381280;28;19940;-75
2022/02/12 03:04:03;;;;;;;;;;;-0.60;99.90;;;;;;8385096;28;20028;-75
2022/02/12 03:08:05;;;;;;;;;;;-0.60;99.90;;;;;;8388950;28;19991;-75
2022/02/12 03:12:06;;;;;;;;;;;-0.60;99.90;;;;;;8387230;28;19932;-75
2022/02/12 03:16:08;;;;;;;;;;;-0.60;99.90;;;;;;8395566;28;19924;-75
2022/02/12 03:20:10;;;;;;;;;;;-0.50;99.90;;;;;;8381286;28;19964;-75
2022/02/12 03:24:12;;;;;;;;;;;-0.50;99.90;;;;;;8394809;28;20011;-75
2022/02/12 03:28:13;;;;;;;;;;;-0.50;99.90;;;;;;8388235;28;20311;-75
2022/02/12 03:32:15;;;;;;;;;;;-0.40;99.90;;;;;;8417729;28;20011;-75
2022/02/12 03:36:17;;;;;;;;;;;-0.30;99.90;;;;;;8415640;28;20387;-76
2022/02/12 03:40:18;;;;;;;;;;;-0.30;99.90;;;;;;8418403;28;19940;-75
2022/02/12 03:44:20;;;;;;;;;;;-0.30;99.90;;;;;;8418994;28;20046;-75
2022/02/12 03:48:22;;;;;;;;;;;-0.20;99.90;;;;;;8423862;28;20081;-75
2022/02/12 03:52:23;;;;;;;;;;;-0.20;99.90;;;;;;8416035;28;19932;-75
2022/02/12 03:56:25;;;;;;;;;;;-0.20;99.90;;;;;;8397348;28;19924;-75
2022/02/12 04:00:27;;;;;;;;;;;-0.20;99.90;;;;;;8413643;28;20015;-75
2022/02/12 04:04:28;;;;;;;;;;;-0.20;99.90;;;;;;8414320;28;19928;-75
2022/02/12 04:08:30;;;;;;;;;;;-0.30;99.90;;;;;;8421844;28;20431;-75
2022/02/12 04:12:32;;;;;;;;;;;-0.30;99.90;;;;;;8409518;28;19971;-75
2022/02/12 04:16:33;;;;;;;;;;;-0.20;99.90;;;;;;8415960;28;20002;-76
2022/02/12 04:20:35;;;;;;;;;;;-0.20;99.90;;;;;;8420373;28;19971;-75
2022/02/12 04:24:36;;;;;;;;;;;-0.20;99.90;;;;;;8415816;28;20403;-75
2022/02/12 04:28:38;;;;;;;;;;;-0.20;99.90;;;;;;8396066;28;19939;-75
2022/02/12 04:32:40;;;;;;;;;;;-0.20;99.90;;;;;;8394877;28;20466;-76
2022/02/12 04:36:42;;;;;;;;;;;-0.20;99.90;;;;;;8417529;28;20354;-75
2022/02/12 04:40:43;;;;;;;;;;;-0.20;99.90;;;;;;8413555;28;19924;-76
2022/02/12 04:44:49;;;;;;;;;;;-0.20;99.90;;;;;;8402345;28;19948;-75
2022/02/12 04:48:51;;;;;;;;;;;-0.10;99.90;;;;;;8399101;28;20554;-75
2022/02/12 04:52:52;;;;;;;;;;;-0.10;99.90;;;;;;8417354;28;19997;-76
2022/02/12 04:56:54;;;;;;;;;;;0.00;99.90;;;;;;8418303;28;19967;-75
2022/02/12 05:00:56;;;;;;;;;;;-0.10;99.90;;;;;;8414364;28;20001;-75
2022/02/12 05:04:57;;;;;;;;;;;-0.10;99.90;;;;;;8418159;28;19925;-76
2022/02/12 05:08:59;;;;;;;;;;;-0.10;99.90;;;;;;8411429;28;19924;-76
2022/02/12 05:13:00;;;;;;;;;;;-0.10;99.90;;;;;;8406292;28;20207;-75
2022/02/12 05:17:03;;;;;;;;;;;-0.10;99.90;;;;;;8382381;28;19924;-75
2022/02/12 05:21:04;;;;;;;;;;;-0.10;99.90;;;;;;8398510;28;19994;-75
2022/02/12 05:25:07;;;;;;;;;;;-0.10;99.90;;;;;;8405418;28;20280;-75
2022/02/12 05:29:09;;;;;;;;;;;-0.20;99.90;;;;;;8413922;28;20395;-74
2022/02/12 05:33:10;;;;;;;;;;;-0.20;99.90;;;;;;8407998;28;19925;-75
2022/02/12 05:37:14;;;;;;;;;;;-0.30;99.90;;;;;;8412299;28;22280;-75
2022/02/12 05:41:17;;;;;;;;;;;-0.30;99.90;;;;;;8410441;28;19935;-75
2022/02/12 05:45:19;;;;;;;;;;;-0.20;99.90;;;;;;8406686;28;19978;-75
2022/02/12 05:49:21;;;;;;;;;;;-0.30;99.90;;;;;;8386697;28;19924;-75
2022/02/12 05:53:22;;;;;;;;;;;-0.30;99.90;;;;;;8407553;28;19956;-75
2022/02/12 05:57:24;;;;;;;;;;;-0.30;99.90;;;;;;8388654;28;19963;-75
2022/02/12 06:01:26;;;;;;;;;;;-0.40;99.90;;;;;;8406223;28;20421;-76
2022/02/12 06:05:27;;;;;;;;;;;-0.40;99.90;;;;;;8408648;28;20003;-75
2022/02/12 06:09:29;;;;;;;;;;;-0.40;99.90;;;;;;8386424;28;19924;-75
2022/02/12 06:13:31;;;;;;;;;;;-0.40;99.90;;;;;;8385333;28;20003;-75
2022/02/12 06:17:35;;;;;;;;;;;-0.50;99.90;;;;;;8415886;28;20339;-75
2022/02/12 06:21:37;;;;;;;;;;;-0.50;99.90;;;;;;8418391;28;19975;-75
2022/02/12 06:25:39;;;;;;;;;;;-0.40;99.90;;;;;;8397836;28;19960;-75
2022/02/12 06:29:40;;;;;;;;;;;-0.40;99.90;;;;;;8391400;28;19974;-75
2022/02/12 06:33:42;;;;;;;;;;;-0.40;99.90;;;;;;8400417;28;19932;-75
2022/02/12 06:37:44;;;;;;;;;;;-0.40;99.90;;;;;;8405264;28;19971;-75
2022/02/12 06:41:45;;;;;;;;;;;-0.40;99.90;;;;;;8389218;28;20050;-75
2022/02/12 06:45:47;;;;;;;;;;;-0.40;99.90;;;;;;8397384;28;20019;-76
2022/02/12 06:49:49;;;;;;;;;;;-0.40;99.90;;;;;;8391872;28;20062;-75
2022/02/12 06:53:50;;;;;;;;;;;-0.40;99.90;;;;;;8404433;28;20023;-75
2022/02/12 06:57:52;;;;;;;;;;;-0.30;99.90;;;;;;8381330;28;20011;-75
2022/02/12 07:01:53;;;;;;;;;;;-0.40;99.90;;;;;;8411298;28;20027;-75
2022/02/12 07:05:55;;;;;;;;;;;-0.40;99.90;;;;;;8381995;28;20095;-75
2022/02/12 07:09:57;;;;;;;;;;;-0.40;99.90;;;;;;8400548;28;19979;-75
2022/02/12 07:13:59;;;;;;;;;;;-0.30;99.90;;;;;;8399412;28;20363;-76
2022/02/12 07:18:00;;;;;;;;;;;-0.30;99.90;;;;;;8396837;28;20264;-75
2022/02/12 07:22:02;;;;;;;;;;;-0.30;99.90;;;;;;8397481;28;19987;-75
2022/02/12 07:26:03;;;;;;;;;;;-0.30;99.90;;;;;;8406156;28;19924;-75
2022/02/12 07:30:07;;;;;;;;;;;-0.20;99.90;;;;;;8405957;28;19971;-75
2022/02/12 07:34:14;;;;;;;;;;;-0.20;99.90;;;;;;8399628;28;20006;-75
2022/02/12 07:38:15;;;;;;;;;;;-0.20;99.90;;;;;;8410940;28;20028;-76
2022/02/12 07:42:17;;;;;;;;;;;-0.10;99.90;;;;;;8418944;28;19931;-75
2022/02/12 07:46:19;;;;;;;;;;;-0.10;99.90;;;;;;8408084;28;19975;-75
2022/02/12 07:50:20;;;;;;;;;;;-0.10;99.90;;;;;;8405303;28;20348;-75
2022/02/12 07:54:22;;;;;;;;;;;0.10;99.90;;;;;;8394271;28;20426;-75
2022/02/12 07:58:24;;;;;;;;;;;0.10;99.90;;;;;;8392138;28;19925;-75
2022/02/12 08:02:25;;;;;;;;;;;0.20;99.90;;;;;;8384752;28;19935;-75
2022/02/12 08:15:13;;;;;;;;;;;0.50;99.90;;;;;;8412441;28;19924;-75
2022/02/12 08:19:14;;;;;;;;;;;0.50;99.90;;;;;;8398005;28;20302;-75
2022/02/12 08:23:17;;;;;;;;;;;0.60;99.90;;;;;;8412985;28;20267;-75
2022/02/12 08:27:21;;;;;;;;;;;0.60;99.90;;;;;;8384455;28;19932;-76
2022/02/12 08:31:22;;;;;;;;;;;0.70;99.90;;;;;;8414566;28;20804;-76
2022/02/12 08:35:24;;;;;;;;;;;0.70;99.90;;;;;;8401885;28;19979;-76
2022/02/12 08:39:26;;;;;;;;;;;0.90;99.90;;;;;;8413168;28;19933;-76
2022/02/12 08:43:27;;;;;;;;;;;1.00;99.90;;;;;;8408196;28;19971;-76
2022/02/12 08:47:32;;;;;;;;;;;1.20;99.90;;;;;;8407151;28;20287;-76
2022/02/12 08:51:37;;;;;;;;;;;1.30;99.90;;;;;;8407431;28;19960;-75
2022/02/12 08:55:39;;;;;;;;;;;1.50;99.90;;;;;;8414108;28;19935;-75
2022/02/12 08:59:45;;;;;;;;;;;1.60;99.90;;;;;;8419824;28;20203;-75
2022/02/12 09:03:47;;;;;;;;;;;1.70;99.90;;;;;;8404959;28;20014;-75
2022/02/12 09:07:49;;;;;;;;;;;1.80;99.90;;;;;;8387145;28;19979;-75
2022/02/12 09:11:50;;;;;;;;;;;2.00;99.90;;;;;;8388814;28;20287;-75
2022/02/12 09:15:53;;;;;;;;;;;2.10;99.90;;;;;;8414292;28;20417;-75
2022/02/12 09:19:58;;;;;;;;;;;2.20;99.90;;;;;;8406637;28;19967;-76
2022/02/12 09:24:00;;;;;;;;;;;2.40;99.90;;;;;;8390120;28;20003;-75
2022/02/12 09:28:02;;;;;;;;;;;2.50;99.90;;;;;;8392648;28;19978;-75
2022/02/12 09:32:03;;;;;;;;;;;2.60;99.90;;;;;;8409739;28;19929;-75
2022/02/12 09:36:05;;;;;;;;;;;2.80;99.90;;;;;;8399580;28;19978;-75
2022/02/12 09:40:09;;;;;;;;;;;3.00;99.90;;;;;;8411581;28;19931;-75
2022/02/12 09:44:11;;;;;;;;;;;3.30;99.90;;;;;;8413086;28;20347;-75
2022/02/12 09:48:14;;;;;;;;;;;3.60;99.90;;;;;;8379004;28;19928;-74
2022/02/12 09:52:17;;;;;;;;;;;3.90;99.90;;;;;;8420484;28;19924;-75
2022/02/12 09:56:18;;;;;;;;;;;4.30;99.90;;;;;;8410253;28;19932;-75
2022/02/12 10:00:20;;;;;;;;;;;4.60;99.90;;;;;;8404086;28;19924;-75
2022/02/12 10:04:22;;;;;;;;;;;4.90;99.90;;;;;;8390615;28;19924;-75
2022/02/12 10:08:23;;;;;;;;;;;5.20;99.90;;;;;;8418182;28;19964;-75
2022/02/12 10:12:25;;;;;;;;;;;5.40;99.90;;;;;;8402548;28;19935;-75
2022/02/12 10:16:47;;;;;;;;;;;5.40;99.90;;;;;;8390936;28;19928;-75
2022/02/12 10:20:50;;;;;;;;;;;5.40;99.90;;;;;;8404377;28;19971;-75
2022/02/12 10:24:54;;;;;;;;;;;5.50;99.90;;;;;;8413487;28;19925;-75
2022/02/12 10:29:01;;;;;;;;;;;5.70;99.90;;;;;;8408742;28;19974;-75
2022/02/12 10:33:04;;;;;;;;;;;6.00;99.90;;;;;;8382557;28;19924;-75
2022/02/12 10:37:06;;;;;;;;;;;6.30;99.90;;;;;;8414876;28;20023;-75
2022/02/12 10:41:08;;;;;;;;;;;6.50;99.90;;;;;;8417719;28;20354;-75
2022/02/12 10:45:12;;;;;;;;;;;6.70;99.90;;;;;;8406025;28;19935;-75
2022/02/12 10:49:13;;;;;;;;;;;7.00;99.90;;;;;;8408386;28;19925;-75
2022/02/12 10:53:15;;;;;;;;;;;7.30;99.90;;;;;;8404052;28;19979;-75
2022/02/12 10:57:17;;;;;;;;;;;7.70;99.90;;;;;;8396194;28;19966;-75
2022/02/12 11:01:19;;;;;;;;;;;8.10;99.90;;;;;;8386886;28;19955;-75
2022/02/12 11:05:22;;;;;;;;;;;8.60;99.90;;;;;;8401205;28;20345;-75
2022/02/12 11:09:24;;;;;;;;;;;8.90;99.90;;;;;;8414839;28;19990;-75
2022/02/12 11:13:26;;;;;;;;;;;9.10;99.90;;;;;;8391100;28;20040;-75
2022/02/12 11:17:31;;;;;;;;;;;9.20;99.90;;;;;;8411910;28;19935;-75
2022/02/12 11:21:37;;;;;;;;;;;9.40;99.90;;;;;;8411763;28;20375;-75
2022/02/12 11:25:40;;;;;;;;;;;9.40;99.90;;;;;;8411821;28;19935;-75
2022/02/12 11:29:44;;;;;;;;;;;9.60;99.90;;;;;;8411445;28;19972;-75
2022/02/12 11:34:04;;;;;;;;;;;9.80;99.90;;;;;;8395277;28;20046;-75
2022/02/12 11:38:26;;;;;;;;;;;10.00;99.90;;;;;;8417730;28;20324;-75
2022/02/12 11:42:41;;;;;;;;;;;10.10;99.90;;;;;;8415835;28;19968;-75
2022/02/12 11:46:42;;;;;;;;;;;10.30;99.90;;;;;;8417693;28;19924;-75
2022/02/12 11:50:44;;;;;;;;;;;10.40;99.90;;;;;;8395175;28;20441;-75
2022/02/12 11:54:57;;;;;;;;;;;10.60;99.90;;;;;;8406735;28;19959;-75
2022/02/12 11:58:59;;;;;;;;;;;10.60;99.90;;;;;;8394504;28;19975;-75
2022/02/12 12:03:05;;;;;;;;;;;10.70;99.90;;;;;;8389673;28;20439;-75
2022/02/12 12:07:11;;;;;;;;;;;11.20;99.90;;;;;;8399679;28;19932;-75
2022/02/12 12:11:12;;;;;;;;;;;11.40;99.90;;;;;;8412870;28;19925;-75
2022/02/12 12:15:15;;;;;;;;;;;11.30;99.90;;;;;;8389071;28;19924;-75
2022/02/12 12:19:18;;;;;;;;;;;11.20;99.90;;;;;;8407260;28;20387;-75
2022/02/12 12:23:22;;;;;;;;;;;11.00;99.90;;;;;;8383111;28;20069;-75
2022/02/12 12:27:23;;;;;;;;;;;11.00;99.90;;;;;;8399011;28;20288;-75
2022/02/12 12:31:25;;;;;;;;;;;11.10;99.90;;;;;;8410139;28;19925;-75
2022/02/12 12:35:27;;;;;;;;;;;10.90;99.90;;;;;;8404789;28;19930;-75
2022/02/12 12:39:33;;;;;;;;;;;10.80;99.90;;;;;;8405824;28;19970;-75
2022/02/12 12:43:34;;;;;;;;;;;10.80;99.90;;;;;;8415945;28;19971;-75
2022/02/12 12:47:36;;;;;;;;;;;10.70;99.90;;;;;;8412428;28;19964;-75
2022/02/12 12:51:48;;;;;;;;;;;10.60;99.90;;;;;;8414840;28;20335;-76
2022/02/12 12:55:50;;;;;;;;;;;10.50;99.90;;;;;;8415475;28;19943;-75
2022/02/12 12:59:52;;;;;;;;;;;10.80;99.90;;;;;;8418318;28;19931;-75
2022/02/12 13:03:57;;;;;;;;;;;11.20;99.90;;;;;;8415768;28;19931;-76
2022/02/12 13:08:01;;;;;;;;;;;11.30;99.90;;;;;;8412795;28;19963;-76
2022/02/12 13:12:22;;;;;;;;;;;11.20;99.90;;;;;;8401633;28;19982;-76
2022/02/12 13:16:23;;;;;;;;;;;11.20;99.90;;;;;;8399113;28;19974;-75
2022/02/12 13:20:26;;;;;;;;;;;11.40;99.90;;;;;;8416044;28;19963;-75
2022/02/12 13:24:31;;;;;;;;;;;10.90;99.90;;;;;;8414729;28;19939;-75
2022/02/12 13:28:33;;;;;;;;;;;10.40;99.90;;;;;;8398642;28;19961;-75
2022/02/12 13:32:35;;;;;;;;;;;10.00;99.90;;;;;;8412295;28;19999;-75
2022/02/12 13:36:41;;;;;;;;;;;9.60;99.90;;;;;;8405600;28;19931;-75
2022/02/12 13:40:43;;;;;;;;;;;9.40;99.90;;;;;;8413887;28;19975;-75
2022/02/12 13:44:45;;;;;;;;;;;9.30;99.90;;;;;;8405371;28;19971;-75
2022/02/12 13:48:47;;;;;;;;;;;9.30;99.90;;;;;;8398066;28;19971;-75
2022/02/12 13:52:52;;;;;;;;;;;9.30;99.90;;;;;;8402380;28;20331;-75
2022/02/12 13:56:58;;;;;;;;;;;9.20;99.60;;;;;;8407273;28;19924;-74
2022/02/12 14:01:00;;;;;;;;;;;9.20;99.90;;;;;;8400741;28;19967;-75
2022/02/12 14:05:02;;;;;;;;;;;9.20;99.50;;;;;;8410689;28;19963;-75
2022/02/12 14:09:04;;;;;;;;;;;9.20;99.90;;;;;;8409739;28;19994;-75
2022/02/12 14:13:06;;;;;;;;;;;9.20;99.90;;;;;;8409368;28;20348;-75
2022/02/12 14:17:07;;;;;;;;;;;9.20;99.90;;;;;;8397602;28;19931;-75
2022/02/12 14:21:09;;;;;;;;;;;9.10;99.60;;;;;;8404526;28;19932;-75
2022/02/12 14:25:11;;;;;;;;;;;9.00;99.90;;;;;;8415316;28;20379;-75
2022/02/12 14:29:14;;;;;;;;;;;9.00;99.90;;;;;;8405797;28;20295;-74
2022/02/12 14:33:16;;;;;;;;;;;9.10;99.90;;;;;;8405654;28;19967;-75
2022/02/12 14:37:18;;;;;;;;;;;9.20;99.90;;;;;;8411120;28;19990;-75
2022/02/12 14:41:20;;;;;;;;;;;9.30;99.90;;;;;;8417641;28;19972;-75
2022/02/12 14:45:22;;;;;;;;;;;9.40;99.30;;;;;;8413745;28;20303;-75
2022/02/12 14:49:23;;;;;;;;;;;9.90;98.30;;;;;;8397621;28;19925;-75
2022/02/12 14:53:27;;;;;;;;;;;10.60;99.90;;;;;;8412526;28;19978;-75
2022/02/12 14:57:30;;;;;;;;;;;11.50;99.90;;;;;;8384968;28;20388;-75
2022/02/12 15:01:31;;;;;;;;;;;11.90;99.90;;;;;;8414952;28;19932;-75
2022/02/12 15:05:33;;;;;;;;;;;12.00;99.90;;;;;;8418121;28;19931;-75
2022/02/12 15:09:34;;;;;;;;;;;12.10;98.00;;;;;;8405330;28;19974;-75
2022/02/12 15:13:36;;;;;;;;;;;12.30;98.10;;;;;;8406614;28;19974;-75
2022/02/12 15:17:38;;;;;;;;;;;12.30;99.60;;;;;;8418471;28;19978;-75
2022/02/12 15:21:40;;;;;;;;;;;12.30;99.90;;;;;;8419248;28;20370;-75
2022/02/12 15:25:43;;;;;;;;;;;11.80;95.50;;;;;;8409532;28;19971;-75
2022/02/12 15:29:45;;;;;;;;;;;11.50;97.50;;;;;;8425568;28;19924;-75
2022/02/12 15:33:48;;;;;;;;;;;11.10;96.80;;;;;;8419626;28;19960;-75
2022/02/12 15:37:50;;;;;;;;;;;10.40;96.60;;;;;;8406752;28;19962;-75
2022/02/12 15:41:51;;;;;;;;;;;9.70;96.90;;;;;;8397990;28;19971;-75
2022/02/12 15:45:53;;;;;;;;;;;9.20;97.50;;;;;;8410777;28;19971;-75
2022/02/12 15:49:55;;;;;;;;;;;8.80;96.80;;;;;;8416107;28;19932;-75
2022/02/12 15:53:56;;;;;;;;;;;8.50;96.40;;;;;;8408581;28;19928;-75
2022/02/12 15:57:59;;;;;;;;;;;8.30;96.80;;;;;;8397714;28;19971;-75
2022/02/12 16:02:00;;;;;;;;;;;8.30;96.90;;;;;;8393443;28;19960;-75
2022/02/12 16:06:02;;;;;;;;;;;8.30;97.30;;;;;;8401313;28;19928;-75
2022/02/12 16:10:05;;;;;;;;;;;8.30;97.50;;;;;;8400336;28;20351;-75
2022/02/12 16:14:07;;;;;;;;;;;8.20;98.10;;;;;;8397190;28;19978;-75
2022/02/12 16:18:09;;;;;;;;;;;8.10;98.60;;;;;;8396158;28;19924;-75
2022/02/12 16:22:11;;;;;;;;;;;8.10;98.60;;;;;;8402499;28;19928;-75
2022/02/12 16:26:13;;;;;;;;;;;8.00;98.90;;;;;;8380874;28;19966;-75
2022/02/12 16:30:30;;;;;;;;;;;7.80;99.10;;;;;;8391868;28;19942;-75
2022/02/12 16:34:35;;;;;;;;;;;7.60;99.10;;;;;;8400920;28;20335;-75
2022/02/12 16:38:41;;;;;;;;;;;7.40;99.10;;;;;;8384875;28;19960;-75
2022/02/12 16:42:43;;;;;;;;;;;7.30;99.40;;;;;;8399297;28;19986;-75
2022/02/12 16:46:44;;;;;;;;;;;7.30;99.60;;;;;;8381194;28;19975;-75
2022/02/12 16:50:46;;;;;;;;;;;7.20;99.60;;;;;;8376975;28;19978;-75
2022/02/12 16:54:50;;;;;;;;;;;7.10;99.60;;;;;;8394778;28;19932;-75
2022/02/12 16:58:51;;;;;;;;;;;6.90;99.70;;;;;;8400580;28;20406;-75
2022/02/12 17:02:53;;;;;;;;;;;6.80;99.80;;;;;;8397809;28;20109;-75
2022/02/12 17:06:54;;;;;;;;;;;6.70;99.90;;;;;;8399376;28;19963;-75
2022/02/12 17:10:56;;;;;;;;;;;6.70;99.90;;;;;;8386294;28;19924;-75
2022/02/12 17:15:01;;;;;;;;;;;6.60;99.90;;;;;;8383356;28;19952;-76
2022/02/12 17:19:03;;;;;;;;;;;6.60;99.90;;;;;;8404208;28;20011;-75
2022/02/12 17:23:04;;;;;;;;;;;6.50;99.90;;;;;;8404840;28;19924;-75
2022/02/12 17:27:06;;;;;;;;;;;6.40;99.90;;;;;;8404781;28;20583;-75
2022/02/12 17:31:08;;;;;;;;;;;6.30;99.90;;;;;;8395691;28;20657;-75
2022/02/12 17:35:10;;;;;;;;;;;6.30;99.90;;;;;;8376319;28;20015;-75
2022/02/12 17:39:12;;;;;;;;;;;6.20;99.90;;;;;;8385630;28;19972;-75
2022/02/12 17:43:13;;;;;;;;;;;6.20;99.90;;;;;;8385423;28;19967;-75
2022/02/12 17:47:15;;;;;;;;;;;6.20;99.90;;;;;;8395192;28;19971;-75
2022/02/12 17:51:17;;;;;;;;;;;6.20;99.90;;;;;;8390574;28;19928;-75
2022/02/12 17:55:18;;;;;;;;;;;6.20;99.90;;;;;;8377410;28;20034;-75
2022/02/12 17:59:20;;;;;;;;;;;6.10;99.90;;;;;;8396010;28;19987;-75
2022/02/12 18:03:21;;;;;;;;;;;6.10;99.90;;;;;;8387738;28;20411;-75
2022/02/12 18:07:23;;;;;;;;;;;6.00;99.90;;;;;;8379322;28;19959;-75
2022/02/12 18:11:25;;;;;;;;;;;6.00;99.90;;;;;;8376815;28;19971;-75
2022/02/12 18:15:27;;;;;;;;;;;5.90;99.90;;;;;;8383107;28;19979;-75
2022/02/12 18:19:28;;;;;;;;;;;5.90;99.90;;;;;;8379635;28;20287;-75
2022/02/12 18:23:34;;;;;;;;;;;5.90;99.90;;;;;;8394009;28;19924;-75
2022/02/12 18:27:36;;;;;;;;;;;5.80;99.90;;;;;;8401343;28;19998;-75
2022/02/12 18:31:37;;;;;;;;;;;5.70;99.90;;;;;;8369343;28;20410;-75
2022/02/12 18:35:39;;;;;;;;;;;5.60;99.90;;;;;;8364825;28;20024;-75
2022/02/12 18:39:41;;;;;;;;;;;5.60;99.90;;;;;;8366895;28;19931;-75
2022/02/12 18:44:03;;;;;;;;;;;5.50;99.90;;;;;;8365610;28;19933;-75
2022/02/12 18:48:05;;;;;;;;;;;5.40;99.90;;;;;;8357468;28;20031;-75
2022/02/12 18:52:09;;;;;;;;;;;5.40;99.90;;;;;;8364877;28;20019;-76
2022/02/12 18:56:11;;;;;;;;;;;5.30;99.90;;;;;;8365032;28;19935;-75
2022/02/12 19:00:13;;;;;;;;;;;5.20;99.90;;;;;;8364053;28;20402;-75
2022/02/12 19:04:14;;;;;;;;;;;5.20;99.90;;;;;;8366277;28;20027;-75
2022/02/12 19:08:16;;;;;;;;;;;5.10;99.90;;;;;;8370465;28;19963;-75
2022/02/12 19:12:18;;;;;;;;;;;5.10;99.90;;;;;;8370702;28;20501;-75
2022/02/12 19:16:19;;;;;;;;;;;5.00;99.90;;;;;;8374760;28;19925;-75
2022/02/12 19:20:21;;;;;;;;;;;5.00;99.90;;;;;;8376335;28;20015;-75
2022/02/12 19:24:22;;;;;;;;;;;4.90;99.90;;;;;;8376399;28;20023;-75
2022/02/12 19:28:25;;;;;;;;;;;4.90;99.90;;;;;;8373513;28;20035;-75
2022/02/12 19:32:28;;;;;;;;;;;4.80;99.90;;;;;;8408975;28;20058;-75
2022/02/12 19:36:30;;;;;;;;;;;4.70;99.90;;;;;;8408837;28;19939;-75
2022/02/12 19:40:31;;;;;;;;;;;4.70;99.90;;;;;;8392284;28;19928;-75
2022/02/12 19:44:37;;;;;;;;;;;4.60;99.90;;;;;;8407302;28;19925;-75
2022/02/12 19:48:39;;;;;;;;;;;4.50;99.90;;;;;;8406683;28;19932;-76
2022/02/12 19:52:41;;;;;;;;;;;4.40;99.90;;;;;;8409939;28;19956;-76
2022/02/12 19:56:42;;;;;;;;;;;4.30;99.90;;;;;;8409168;28;19935;-76
2022/02/12 20:00:45;;;;;;;;;;;4.30;99.90;;;;;;8407448;28;20110;-75
2022/02/12 20:04:47;;;;;;;;;;;4.30;99.90;;;;;;8408387;28;19932;-75
2022/02/12 20:08:52;;;;;;;;;;;4.30;99.90;;;;;;8397290;28;19928;-75
2022/02/12 20:12:54;;;;;;;;;;;4.20;99.90;;;;;;8408206;28;19971;-75
2022/02/12 20:16:56;;;;;;;;;;;4.20;99.90;;;;;;8409395;28;19967;-75
2022/02/12 20:21:00;;;;;;;;;;;4.20;99.90;;;;;;8409596;28;20650;-75
2022/02/12 20:25:05;;;;;;;;;;;4.20;99.90;;;;;;8406327;28;19928;-75
2022/02/12 20:29:09;;;;;;;;;;;4.10;99.90;;;;;;8408150;28;20007;-75
2022/02/12 20:33:10;;;;;;;;;;;4.10;99.90;;;;;;8405873;28;19978;-75
2022/02/12 20:37:13;;;;;;;;;;;4.10;99.90;;;;;;8403699;28;19971;-75
2022/02/12 20:41:15;;;;;;;;;;;4.10;99.90;;;;;;8405159;28;20399;-75
2022/02/12 20:45:18;;;;;;;;;;;4.00;99.90;;;;;;8405857;28;20008;-75
2022/02/12 20:49:20;;;;;;;;;;;4.00;99.90;;;;;;8406207;28;19956;-75
2022/02/12 20:53:22;;;;;;;;;;;4.00;99.90;;;;;;8407750;28;19936;-75
2022/02/12 20:57:25;;;;;;;;;;;4.00;99.90;;;;;;8402178;28;19997;-75
2022/02/12 21:01:27;;;;;;;;;;;3.90;99.90;;;;;;8404125;28;20463;-75
2022/02/12 21:05:30;;;;;;;;;;;3.90;99.90;;;;;;8394553;28;19986;-75
2022/02/12 21:09:32;;;;;;;;;;;3.90;99.90;;;;;;8402713;28;19932;-75
2022/02/12 21:13:35;;;;;;;;;;;3.80;99.90;;;;;;8407263;28;21023;-75
2022/02/12 21:17:37;;;;;;;;;;;3.80;99.90;;;;;;8402982;28;20291;-75
2022/02/12 21:21:39;;;;;;;;;;;3.70;99.90;;;;;;8406523;28;20039;-75
2022/02/12 21:25:40;;;;;;;;;;;3.70;99.90;;;;;;8403699;28;19976;-75
2022/02/12 21:29:51;;;;;;;;;;;3.70;99.90;;;;;;8402841;28;20011;-75
2022/02/12 21:33:53;;;;;;;;;;;3.60;99.90;;;;;;8382099;28;20058;-75
2022/02/12 21:37:55;;;;;;;;;;;3.60;99.90;;;;;;8379632;28;19967;-75
2022/02/12 21:41:56;;;;;;;;;;;3.60;99.90;;;;;;8396060;28;20023;-75
2022/02/12 21:45:58;;;;;;;;;;;3.60;99.90;;;;;;8396478;28;20054;-75
2022/02/12 21:49:59;;;;;;;;;;;3.60;99.90;;;;;;8386447;28;20288;-75
2022/02/12 21:54:01;;;;;;;;;;;3.50;99.90;;;;;;8392507;28;19928;-75
2022/02/12 21:58:03;;;;;;;;;;;3.50;99.90;;;;;;8396796;28;19947;-75
2022/02/12 22:02:06;;;;;;;;;;;3.50;99.90;;;;;;8386773;28;19967;-75
2022/02/12 22:06:11;;;;;;;;;;;3.50;99.90;;;;;;8412871;28;20002;-75
2022/02/12 22:10:12;;;;;;;;;;;3.50;99.90;;;;;;8409550;28;19936;-74
2022/02/12 22:14:14;;;;;;;;;;;3.40;99.90;;;;;;8381249;28;20304;-75
2022/02/12 22:18:16;;;;;;;;;;;3.40;99.90;;;;;;8385398;28;19959;-75
2022/02/12 22:22:18;;;;;;;;;;;3.30;99.90;;;;;;8407321;28;19980;-75
2022/02/12 22:26:20;;;;;;;;;;;3.30;99.90;;;;;;8394370;28;20011;-75
2022/02/12 22:30:24;;;;;;;;;;;3.20;99.90;;;;;;8405203;28;19972;-75
2022/02/12 22:34:28;;;;;;;;;;;3.20;99.90;;;;;;8408805;28;20279;-75
2022/02/12 22:38:30;;;;;;;;;;;3.10;99.90;;;;;;8392843;28;19947;-75
2022/02/12 22:42:32;;;;;;;;;;;3.00;99.90;;;;;;8379863;28;20355;-75
2022/02/12 22:46:33;;;;;;;;;;;3.00;99.90;;;;;;8393678;28;19928;-75
2022/02/12 22:50:36;;;;;;;;;;;2.90;99.90;;;;;;8391507;28;20295;-75
2022/02/12 22:54:37;;;;;;;;;;;2.90;99.90;;;;;;8408671;28;19971;-75
2022/02/12 22:58:39;;;;;;;;;;;2.80;99.90;;;;;;8411951;28;20335;-75
2022/02/12 23:02:41;;;;;;;;;;;2.70;99.90;;;;;;8407320;28;19929;-75
2022/02/12 23:06:42;;;;;;;;;;;2.70;99.90;;;;;;8413734;28;20387;-75
2022/02/12 23:10:44;;;;;;;;;;;2.60;99.90;;;;;;8420377;28;19967;-75
2022/02/12 23:14:45;;;;;;;;;;;2.60;99.90;;;;;;8415721;28;19931;-75
2022/02/12 23:18:47;;;;;;;;;;;2.60;99.90;;;;;;8416164;28;19924;-75
2022/02/12 23:22:49;;;;;;;;;;;2.50;99.90;;;;;;8393481;28;19935;-75
2022/02/12 23:26:50;;;;;;;;;;;2.40;99.90;;;;;;8406486;28;19971;-75
2022/02/12 23:30:52;;;;;;;;;;;2.40;99.90;;;;;;8390651;28;20036;-75
2022/02/12 23:34:53;;;;;;;;;;;2.40;99.90;;;;;;8403992;28;19936;-75
2022/02/12 23:38:55;;;;;;;;;;;2.30;99.90;;;;;;8396015;28;20367;-75
2022/02/12 23:42:58;;;;;;;;;;;2.30;99.90;;;;;;8388370;28;19967;-75
2022/02/12 23:46:59;;;;;;;;;;;2.30;99.90;;;;;;8402480;28;20572;-75
2022/02/12 23:51:01;;;;;;;;;;;2.30;99.90;;;;;;8416472;28;19964;-75
2022/02/12 23:55:09;;;;;;;;;;;2.20;99.90;;;;;;8415207;28;20473;-75
2022/02/12 23:59:10;;;;;;;;;;;2.20;99.90;;;;;;8411126;28;19933;-75
